Octavia, Nebraska
Current Conditions -  °F | °C
As of 7:35 PM on Monday 22 Dec 2014 (Local Time) from KOLU Reporting Station
Overcast Overcast  
Wind Chill: 33°   Ceiling: 3100
Heat Index: 37°   Visibility: 10mi
Dew Point: 32°   Wind: 6mph
Humidity: 81%   Direction: 290°WNW
Pressure: 29.49"   Gusts: NA
Location:  41.1947°N, 97.127°W
Report Text: KOLU 230135Z AUTO 29005KT 10SM BKN031 BKN060 OVC080 03/00 A2949 RMK AO1
Loading
Personal Weather Stations






























Interactive Weather Map New forecast layout! Learn more

10-Day Weather Forecast

Advertisements
Track Severe Weather on mobile